createdAt,value
2023-09-23T00:01:50.232Z,2.53
2023-09-23T00:04:20.085Z,2.50
2023-09-23T00:06:50.726Z,2.17
2023-09-23T00:09:20.516Z,3.38
2023-09-23T00:11:48.986Z,3.60
2023-09-23T00:14:20.406Z,2.70
2023-09-23T00:16:49.000Z,2.70
2023-09-23T00:19:17.618Z,3.05
2023-09-23T00:21:46.620Z,2.53
2023-09-23T00:24:15.036Z,3.40
2023-09-23T00:26:45.001Z,4.13
2023-09-23T00:29:13.851Z,3.63
2023-09-23T00:31:44.769Z,4.90
2023-09-23T00:34:13.824Z,5.35
2023-09-23T00:36:42.542Z,3.75
2023-09-23T00:39:11.464Z,4.22
2023-09-23T00:41:42.959Z,4.05
2023-09-23T00:44:13.256Z,6.93
2023-09-23T00:46:45.889Z,4.55
2023-09-23T00:49:15.884Z,4.85
2023-09-23T00:51:44.816Z,5.65
2023-09-23T00:54:22.694Z,5.68
2023-09-23T00:56:51.732Z,4.47
2023-09-23T00:59:21.634Z,5.32
2023-09-23T01:01:53.013Z,5.65
2023-09-23T01:04:22.679Z,5.45
2023-09-23T01:06:51.738Z,4.82
2023-09-23T01:09:22.263Z,4.72
2023-09-23T01:11:52.555Z,8.45
2023-09-23T01:14:22.510Z,8.43
2023-09-23T01:16:52.560Z,6.40
2023-09-23T01:19:21.975Z,7.65
2023-09-23T01:21:51.575Z,6.97
2023-09-23T01:24:21.832Z,6.45
2023-09-23T01:26:52.776Z,8.38
2023-09-23T01:29:23.487Z,7.13
2023-09-23T01:32:14.276Z,8.55
2023-09-23T01:34:43.233Z,7.47
2023-09-23T01:37:11.725Z,8.98
2023-09-23T01:39:42.561Z,8.65
2023-09-23T01:42:12.820Z,7.10
2023-09-23T01:44:41.470Z,6.88
2023-09-23T01:47:10.005Z,9.48
2023-09-23T01:49:39.114Z,8.05
2023-09-23T01:52:07.555Z,8.27
2023-09-23T01:54:36.078Z,8.25
2023-09-23T01:57:07.618Z,7.00
2023-09-23T01:59:36.026Z,9.68
2023-09-23T02:02:06.042Z,7.75
2023-09-23T02:04:34.992Z,7.30
2023-09-23T02:07:04.092Z,8.77
2023-09-23T02:09:35.824Z,8.85
2023-09-23T02:12:04.623Z,7.30
2023-09-23T02:14:34.599Z,8.43
2023-09-23T02:17:03.777Z,6.90
2023-09-23T02:19:32.173Z,6.38
2023-09-23T02:22:05.067Z,6.78
2023-09-23T02:24:34.762Z,5.80
2023-09-23T02:27:03.166Z,4.63
2023-09-23T02:29:33.039Z,5.35
2023-09-23T02:32:02.091Z,7.53
2023-09-23T02:34:30.596Z,4.97
2023-09-23T02:36:59.526Z,6.78
2023-09-23T02:39:27.968Z,5.90
2023-09-23T02:41:56.654Z,6.55
2023-09-23T02:44:25.877Z,4.70
2023-09-23T02:46:56.165Z,5.63
2023-09-23T02:49:25.571Z,6.20
2023-09-23T02:51:54.860Z,6.03
2023-09-23T02:54:23.228Z,7.65
2023-09-23T02:56:51.709Z,6.35
2023-09-23T02:59:27.178Z,6.07
2023-09-23T03:01:59.280Z,6.22
2023-09-23T03:04:30.420Z,6.03
2023-09-23T03:07:01.038Z,6.10
2023-09-23T03:09:33.549Z,6.07
2023-09-23T03:12:02.869Z,6.60
2023-09-23T03:14:37.707Z,7.65
2023-09-23T03:17:08.645Z,7.72
2023-09-23T03:19:39.673Z,8.63
2023-09-23T03:22:08.991Z,6.80
2023-09-23T03:24:37.430Z,8.15
2023-09-23T03:27:06.880Z,7.68
2023-09-23T03:29:35.390Z,8.05
2023-09-23T03:32:04.437Z,7.20
2023-09-23T03:34:35.656Z,7.55
2023-09-23T03:37:11.943Z,7.22
2023-09-23T03:39:42.252Z,7.47
2023-09-23T03:42:13.333Z,9.82
2023-09-23T03:44:44.380Z,7.63
2023-09-23T03:47:12.915Z,12.65
2023-09-23T03:49:42.791Z,10.38
2023-09-23T03:52:12.245Z,10.27
2023-09-23T03:54:41.547Z,11.48
2023-09-23T03:57:12.976Z,10.20
2023-09-23T03:59:43.094Z,10.32
2023-09-23T04:02:11.879Z,11.10
2023-09-23T04:04:45.076Z,7.45
2023-09-23T04:07:17.141Z,8.57
2023-09-23T04:09:45.387Z,8.15
2023-09-23T04:12:14.316Z,11.60
2023-09-23T04:14:43.426Z,9.60
2023-09-23T04:17:12.187Z,9.93
2023-09-23T04:19:40.577Z,9.07
2023-09-23T04:22:12.474Z,12.85
2023-09-23T04:24:41.081Z,11.00
2023-09-23T04:27:12.988Z,11.90
2023-09-23T04:29:41.627Z,10.35
2023-09-23T04:32:12.457Z,8.82
2023-09-23T04:34:41.230Z,13.32
2023-09-23T04:37:14.462Z,11.70
2023-09-23T04:39:43.200Z,11.45
2023-09-23T04:42:12.967Z,12.05
2023-09-23T04:44:42.726Z,9.85
2023-09-23T04:47:13.927Z,12.40
2023-09-23T04:49:44.898Z,10.40
2023-09-23T04:52:16.340Z,12.02
2023-09-23T04:54:45.689Z,13.10
2023-09-23T04:57:15.656Z,10.48
2023-09-23T04:59:44.179Z,11.13
2023-09-23T05:02:14.883Z,10.00
2023-09-23T05:04:46.343Z,11.32
2023-09-23T05:07:16.509Z,12.40
2023-09-23T05:09:46.851Z,12.35
2023-09-23T05:12:15.788Z,10.27
2023-09-23T05:14:44.574Z,11.40
2023-09-23T05:17:15.873Z,9.63
2023-09-23T05:19:44.887Z,11.85
2023-09-23T05:22:18.312Z,9.63
2023-09-23T05:24:51.717Z,12.27
2023-09-23T05:27:22.302Z,11.60
2023-09-23T05:29:52.193Z,11.68
2023-09-23T05:32:21.997Z,11.25
2023-09-23T05:34:52.738Z,16.15
2023-09-23T05:37:23.516Z,12.52
2023-09-23T05:39:51.908Z,12.57
2023-09-23T05:42:25.207Z,12.73
2023-09-23T05:44:53.684Z,13.15
2023-09-23T05:47:24.483Z,10.55
2023-09-23T05:49:53.009Z,11.40
2023-09-23T05:52:22.912Z,8.98
2023-09-23T05:54:52.162Z,10.10
2023-09-23T05:57:20.788Z,11.48
2023-09-23T05:59:49.726Z,13.07
2023-09-23T06:02:18.628Z,12.45
2023-09-23T06:04:47.964Z,14.80
2023-09-23T06:07:16.586Z,10.95
2023-09-23T06:09:48.050Z,10.68
2023-09-23T06:12:16.696Z,14.60
2023-09-23T06:14:45.295Z,12.82
2023-09-23T06:17:13.965Z,10.60
2023-09-23T06:19:42.559Z,9.93
2023-09-23T06:22:11.179Z,11.25
2023-09-23T06:24:40.280Z,10.35
2023-09-23T06:27:10.561Z,9.57
2023-09-23T06:29:38.983Z,13.65
2023-09-23T06:32:07.673Z,12.15
2023-09-23T06:34:36.867Z,11.38
2023-09-23T06:37:06.194Z,11.02
2023-09-23T06:39:39.553Z,10.75
2023-09-23T06:42:10.202Z,12.52
2023-09-23T06:44:39.885Z,10.50
2023-09-23T06:47:09.136Z,10.30
2023-09-23T06:49:46.881Z,8.23
2023-09-23T06:52:15.487Z,8.98
2023-09-23T06:54:44.436Z,11.40
2023-09-23T06:57:14.652Z,10.00
2023-09-23T06:59:43.029Z,9.05
2023-09-23T07:02:11.330Z,9.55
2023-09-23T07:04:39.852Z,13.95
2023-09-23T07:07:08.181Z,11.55
2023-09-23T07:09:36.499Z,10.73
2023-09-23T07:12:05.200Z,9.25
2023-09-23T07:14:34.881Z,10.80
2023-09-23T07:17:04.565Z,9.23
2023-09-23T07:19:32.933Z,9.73
2023-09-23T07:22:01.339Z,8.85
2023-09-23T07:24:30.810Z,8.50
2023-09-23T07:26:59.888Z,11.82
2023-09-23T07:29:28.757Z,10.55
2023-09-23T07:32:04.436Z,9.27
2023-09-23T07:34:33.203Z,9.10
2023-09-23T07:37:01.605Z,8.43
2023-09-23T07:39:29.844Z,9.25
2023-09-23T07:41:58.171Z,11.48
2023-09-23T07:44:26.559Z,13.30
2023-09-23T07:46:54.853Z,12.45
2023-09-23T07:49:36.008Z,10.93
2023-09-23T07:52:07.600Z,11.75
2023-09-23T07:54:46.388Z,14.10
2023-09-23T07:57:14.921Z,9.43
2023-09-23T07:59:44.355Z,9.45
2023-09-23T08:02:12.690Z,10.95
2023-09-23T08:04:42.997Z,8.85
2023-09-23T08:07:12.559Z,10.10
2023-09-23T08:09:41.205Z,7.78
2023-09-23T08:12:10.665Z,8.25
2023-09-23T08:14:39.085Z,9.38
2023-09-23T08:17:07.408Z,9.95
2023-09-23T08:19:35.754Z,8.93
2023-09-23T08:22:06.572Z,13.13
2023-09-23T08:24:34.786Z,9.77
2023-09-23T08:27:06.366Z,11.85
2023-09-23T08:29:34.561Z,11.68
2023-09-23T08:32:02.950Z,11.55
2023-09-23T08:34:31.380Z,10.13
2023-09-23T08:36:59.517Z,14.20
2023-09-23T08:39:29.051Z,9.80
2023-09-23T08:42:01.519Z,11.60
2023-09-23T08:44:34.862Z,14.88
2023-09-23T08:47:03.430Z,10.98
2023-09-23T08:49:32.842Z,11.32
2023-09-23T08:52:04.249Z,11.38
2023-09-23T08:54:34.941Z,11.73
2023-09-23T08:57:03.184Z,9.60
2023-09-23T08:59:32.148Z,10.40
2023-09-23T09:02:00.440Z,10.45
2023-09-23T09:04:28.879Z,11.40
2023-09-23T09:06:58.191Z,12.30
2023-09-23T09:09:26.719Z,8.90
2023-09-23T09:11:59.469Z,8.32
2023-09-23T09:14:28.119Z,8.23
2023-09-23T09:16:56.597Z,8.35
2023-09-23T09:19:25.141Z,8.00
2023-09-23T09:21:54.540Z,7.88
2023-09-23T09:24:23.534Z,8.20
2023-09-23T09:26:51.812Z,7.88
2023-09-23T09:29:21.625Z,9.38
2023-09-23T09:31:52.567Z,8.80
2023-09-23T09:34:31.029Z,8.35
2023-09-23T09:36:59.702Z,7.07
2023-09-23T09:39:37.882Z,7.30
2023-09-23T09:42:12.712Z,8.32
2023-09-23T09:44:48.144Z,7.95
2023-09-23T09:47:20.257Z,10.45
2023-09-23T09:49:50.257Z,10.05
2023-09-23T09:52:23.029Z,5.70
2023-09-23T09:54:54.547Z,7.40
2023-09-23T09:57:24.699Z,5.03
2023-09-23T10:00:02.191Z,5.95
2023-09-23T10:02:40.728Z,5.97
2023-09-23T10:05:19.890Z,7.07
2023-09-23T10:07:56.186Z,5.60
2023-09-23T10:10:33.838Z,4.10
2023-09-23T10:17:31.673Z,5.28
2023-09-23T10:20:00.809Z,4.47
2023-09-23T10:22:31.738Z,4.90
2023-09-23T10:25:04.715Z,5.22
2023-09-23T10:27:33.746Z,7.75
2023-09-23T10:30:02.303Z,3.38
2023-09-23T10:32:32.022Z,5.88
2023-09-23T10:35:00.924Z,8.15
2023-09-23T10:37:33.839Z,3.95
2023-09-23T10:40:09.910Z,4.43
2023-09-23T10:42:38.756Z,5.25
2023-09-23T10:45:08.869Z,5.10
2023-09-23T10:47:39.248Z,5.10
2023-09-23T10:50:10.059Z,5.07
2023-09-23T10:52:39.379Z,7.00
2023-09-23T10:55:10.646Z,7.13
2023-09-23T10:57:39.396Z,5.47
2023-09-23T11:00:18.348Z,5.40
2023-09-23T11:02:54.243Z,6.38
2023-09-23T11:05:25.307Z,3.05
2023-09-23T11:07:56.987Z,3.35
2023-09-23T11:10:25.704Z,3.05
2023-09-23T11:12:57.036Z,4.18
2023-09-23T11:15:28.155Z,3.72
2023-09-23T11:18:12.536Z,4.03
2023-09-23T11:20:45.809Z,4.97
2023-09-23T11:23:15.927Z,3.10
2023-09-23T11:25:53.987Z,4.68
2023-09-23T11:28:28.751Z,4.90
2023-09-23T11:31:01.828Z,4.25
2023-09-23T11:33:32.102Z,1.90
2023-09-23T11:36:02.492Z,3.08
2023-09-23T11:38:31.265Z,6.32
2023-09-23T11:41:01.823Z,3.67
2023-09-23T11:43:33.011Z,4.45
2023-09-23T11:46:01.775Z,3.10
2023-09-23T11:51:20.566Z,2.10
2023-09-23T11:53:49.091Z,5.50
2023-09-23T11:56:17.556Z,2.03
2023-09-23T12:02:52.940Z,2.80
2023-09-23T12:05:34.179Z,4.13
2023-09-23T12:08:11.815Z,2.28
2023-09-23T12:10:43.283Z,2.58
2023-09-23T12:13:14.259Z,1.92
2023-09-23T12:15:49.847Z,3.97
2023-09-23T12:18:18.115Z,2.78
2023-09-23T12:20:55.684Z,3.35
2023-09-23T12:23:33.911Z,3.33
2023-09-23T12:26:08.338Z,2.10
2023-09-23T12:28:44.043Z,3.40
2023-09-23T12:31:40.297Z,3.20
2023-09-23T12:34:08.684Z,4.10
2023-09-23T12:37:46.236Z,2.05
2023-09-23T12:40:19.500Z,2.47
2023-09-23T12:42:55.048Z,2.13
2023-09-23T12:45:39.788Z,2.63
2023-09-23T12:48:11.601Z,2.72
2023-09-23T12:50:47.984Z,2.70
2023-09-23T12:53:23.391Z,3.15
2023-09-23T12:55:57.312Z,2.70
2023-09-23T12:58:27.645Z,7.15
2023-09-23T13:00:58.959Z,2.30
2023-09-23T13:03:28.879Z,3.08
2023-09-23T13:05:58.059Z,2.20
2023-09-23T13:08:26.440Z,3.08
2023-09-23T13:10:56.110Z,2.85
2023-09-23T13:13:25.132Z,2.22
2023-09-23T13:15:53.501Z,3.10
2023-09-23T13:18:21.777Z,2.53
2023-09-23T13:20:51.816Z,3.75
2023-09-23T13:23:21.543Z,4.03
2023-09-23T13:25:52.088Z,1.70
2023-09-23T13:28:24.335Z,2.78
2023-09-23T13:30:55.931Z,3.08
2023-09-23T13:33:27.712Z,5.90
2023-09-23T13:35:58.289Z,5.00
2023-09-23T13:38:28.857Z,1.67
2023-09-23T13:41:05.375Z,2.80
2023-09-23T13:43:35.124Z,4.45
2023-09-23T13:46:07.800Z,2.25
2023-09-23T13:48:36.454Z,4.68
2023-09-23T13:51:08.289Z,4.07
2023-09-23T13:53:42.116Z,1.98
2023-09-23T13:56:13.141Z,4.50
2023-09-23T13:58:45.085Z,2.78
2023-09-23T14:01:13.678Z,1.77
2023-09-23T14:03:42.076Z,2.53
2023-09-23T14:06:12.071Z,2.92
2023-09-23T14:08:46.565Z,2.00
2023-09-23T14:11:17.902Z,2.80
2023-09-23T14:13:48.946Z,1.00
2023-09-23T14:16:19.287Z,2.10
2023-09-23T14:18:49.095Z,1.70
2023-09-23T14:21:19.526Z,1.05
2023-09-23T14:23:48.088Z,1.05
2023-09-23T14:26:18.552Z,3.15
2023-09-23T14:28:48.428Z,2.38
2023-09-23T14:31:21.063Z,1.90
2023-09-23T14:33:49.738Z,0.95
2023-09-23T14:36:18.018Z,1.40
2023-09-23T14:38:49.832Z,1.60
2023-09-23T14:41:18.782Z,5.20
2023-09-23T14:43:48.365Z,2.05
2023-09-23T14:46:16.771Z,2.75
2023-09-23T14:48:49.129Z,1.42
2023-09-23T14:51:17.635Z,1.67
2023-09-23T14:53:45.977Z,1.73
2023-09-23T14:56:15.205Z,5.10
2023-09-23T14:58:43.785Z,4.47
2023-09-23T15:01:13.915Z,1.20
2023-09-23T15:03:42.676Z,2.05
2023-09-23T15:06:11.023Z,3.10
2023-09-23T15:08:53.581Z,1.38
2023-09-23T15:11:28.669Z,2.65
2023-09-23T15:13:57.344Z,4.85
2023-09-23T15:16:27.541Z,3.15
2023-09-23T15:18:55.984Z,1.83
2023-09-23T15:21:24.255Z,1.67
2023-09-23T15:23:52.493Z,1.30
2023-09-23T15:26:21.471Z,2.90
2023-09-23T15:28:50.422Z,3.25
2023-09-23T15:31:20.054Z,2.45
2023-09-23T15:33:50.856Z,1.33
2023-09-23T15:36:19.582Z,1.65
2023-09-23T15:38:47.997Z,2.13
2023-09-23T15:41:21.089Z,3.15
2023-09-23T15:43:49.703Z,1.30
2023-09-23T15:46:17.981Z,2.80
2023-09-23T15:48:46.658Z,3.15
2023-09-23T15:51:17.083Z,1.83
2023-09-23T15:53:45.786Z,2.00
2023-09-23T15:56:14.842Z,1.42
2023-09-23T15:58:43.335Z,2.75
2023-09-23T16:01:16.923Z,1.65
2023-09-23T16:03:46.023Z,3.50
2023-09-23T16:06:35.177Z,3.28
2023-09-23T16:09:04.177Z,3.65
2023-09-23T16:11:50.139Z,4.90
2023-09-23T16:14:20.484Z,3.20
2023-09-23T16:16:49.393Z,3.33
2023-09-23T16:19:18.075Z,3.92
2023-09-23T16:21:49.978Z,1.80
2023-09-23T16:24:18.458Z,3.92
2023-09-23T16:26:46.670Z,1.92
2023-09-23T16:29:15.008Z,3.00
2023-09-23T16:31:46.246Z,2.40
2023-09-23T16:34:17.499Z,1.30
2023-09-23T16:36:47.586Z,2.05
2023-09-23T16:39:16.559Z,3.15
2023-09-23T16:41:44.956Z,2.30
2023-09-23T16:44:13.252Z,5.43
2023-09-23T16:46:41.757Z,5.22
2023-09-23T16:49:10.279Z,1.40
2023-09-23T16:51:38.601Z,6.10
2023-09-23T16:54:08.426Z,3.05
2023-09-23T16:56:38.101Z,2.72
2023-09-23T16:59:06.926Z,6.75
2023-09-23T17:01:35.319Z,2.40
2023-09-23T17:04:03.858Z,3.50
2023-09-23T17:06:32.218Z,3.05
2023-09-23T17:09:01.237Z,3.90
2023-09-23T17:11:31.052Z,1.65
2023-09-23T17:14:00.047Z,2.58
2023-09-23T17:16:28.693Z,2.63
2023-09-23T17:18:59.622Z,2.72
2023-09-23T17:21:27.994Z,2.63
2023-09-23T17:23:56.764Z,2.65
2023-09-23T17:26:25.847Z,1.52
2023-09-23T17:29:00.616Z,1.48
2023-09-23T17:31:29.692Z,2.63
2023-09-23T17:33:58.490Z,2.45
2023-09-23T17:36:27.348Z,1.42
2023-09-23T17:38:57.506Z,4.65
2023-09-23T17:41:25.717Z,1.33
2023-09-23T17:43:55.751Z,2.00
2023-09-23T17:46:23.990Z,2.53
2023-09-23T17:48:53.265Z,2.30
2023-09-23T17:51:21.507Z,4.10
2023-09-23T17:53:49.811Z,1.60
2023-09-23T17:56:18.409Z,2.88
2023-09-23T17:58:48.103Z,1.23
2023-09-23T18:01:17.907Z,2.50
2023-09-23T18:03:46.526Z,1.88
2023-09-23T18:06:16.539Z,1.45
2023-09-23T18:08:47.435Z,2.92
2023-09-23T18:11:16.742Z,3.63
2023-09-23T18:13:46.058Z,4.10
2023-09-23T18:16:14.833Z,1.52
2023-09-23T18:18:47.271Z,2.25
2023-09-23T18:21:17.372Z,2.13
2023-09-23T18:23:46.108Z,2.88
2023-09-23T18:26:15.305Z,2.60
2023-09-23T18:28:45.238Z,3.63
2023-09-23T18:31:13.834Z,2.22
2023-09-23T18:33:42.362Z,3.95
2023-09-23T18:36:12.803Z,2.63
2023-09-23T18:38:41.071Z,2.95
2023-09-23T18:41:10.469Z,1.95
2023-09-23T18:43:38.712Z,1.65
2023-09-23T18:46:07.087Z,4.30
2023-09-23T18:48:35.278Z,2.28
2023-09-23T18:51:03.906Z,1.77
2023-09-23T18:53:35.161Z,1.95
2023-09-23T18:56:05.219Z,2.08
2023-09-23T18:58:33.821Z,3.35
2023-09-23T19:01:05.174Z,2.60
2023-09-23T19:03:33.823Z,1.98
2023-09-23T19:06:02.221Z,2.20
2023-09-23T19:08:30.890Z,3.28
2023-09-23T19:11:00.610Z,3.00
2023-09-23T19:13:30.035Z,1.58
2023-09-23T19:15:58.372Z,2.10
2023-09-23T19:18:26.659Z,1.73
2023-09-23T19:20:55.135Z,3.05
2023-09-23T19:23:25.877Z,3.78
2023-09-23T19:25:54.477Z,3.85
2023-09-23T19:28:26.673Z,3.47
2023-09-23T19:30:57.600Z,4.25
2023-09-23T19:33:26.771Z,4.00
2023-09-23T19:35:55.315Z,3.13
2023-09-23T19:38:23.708Z,5.22
2023-09-23T19:40:52.022Z,2.10
2023-09-23T19:43:20.328Z,3.70
2023-09-23T19:45:56.898Z,2.63
2023-09-23T19:48:25.613Z,3.42
2023-09-23T19:50:54.123Z,2.38
2023-09-23T19:53:22.389Z,3.75
2023-09-23T19:55:50.708Z,3.20
2023-09-23T19:58:19.965Z,3.47
2023-09-23T20:00:48.839Z,3.92
2023-09-23T20:03:18.933Z,2.95
2023-09-23T20:05:48.292Z,3.28
2023-09-23T20:08:19.203Z,3.30
2023-09-23T20:10:48.083Z,4.95
2023-09-23T20:13:16.371Z,3.72
2023-09-23T20:15:44.671Z,2.20
2023-09-23T20:18:13.104Z,4.57
2023-09-23T20:20:43.868Z,2.75
2023-09-23T20:23:12.319Z,2.60
2023-09-23T20:25:40.513Z,3.75
2023-09-23T20:28:09.493Z,4.78
2023-09-23T20:30:37.842Z,3.63
2023-09-23T20:33:07.151Z,3.28
2023-09-23T20:35:35.603Z,4.10
2023-09-23T20:38:05.734Z,3.30
2023-09-23T20:40:34.009Z,4.15
2023-09-23T20:43:03.234Z,5.40
2023-09-23T20:45:31.421Z,4.05
2023-09-23T20:48:00.162Z,2.47
2023-09-23T20:50:29.138Z,4.20
2023-09-23T20:52:58.630Z,4.03
2023-09-23T20:55:29.088Z,4.38
2023-09-23T20:57:57.485Z,3.13
2023-09-23T21:00:25.779Z,3.03
2023-09-23T21:02:54.270Z,4.90
2023-09-23T21:05:22.922Z,5.03
2023-09-23T21:07:52.243Z,4.95
2023-09-23T21:10:27.657Z,3.75
2023-09-23T21:12:59.901Z,4.07
2023-09-23T21:15:31.999Z,2.35
2023-09-23T21:18:02.334Z,2.95
2023-09-23T21:20:30.814Z,3.15
2023-09-23T21:23:00.415Z,4.70
2023-09-23T21:25:32.140Z,6.18
2023-09-23T21:28:02.807Z,3.83
2023-09-23T21:30:31.067Z,3.40
2023-09-23T21:32:59.472Z,4.10
2023-09-23T21:35:28.457Z,2.45
2023-09-23T21:37:56.709Z,6.80
2023-09-23T21:40:24.970Z,2.40
2023-09-23T21:42:53.220Z,4.28
2023-09-23T21:45:23.074Z,2.85
2023-09-23T21:47:52.813Z,4.10
2023-09-23T21:50:21.857Z,3.58
2023-09-23T21:52:50.399Z,4.05
2023-09-23T21:55:18.852Z,3.95
2023-09-23T21:57:49.250Z,3.45
2023-09-23T22:00:26.883Z,4.50
2023-09-23T22:02:59.286Z,2.42
2023-09-23T22:05:29.808Z,6.75
2023-09-23T22:08:00.292Z,4.30
2023-09-23T22:10:29.205Z,4.28
2023-09-23T22:12:58.309Z,2.83
2023-09-23T22:15:28.930Z,3.70
2023-09-23T22:17:59.469Z,4.75
2023-09-23T22:20:29.071Z,5.13
2023-09-23T22:22:59.745Z,3.47
2023-09-23T22:25:29.054Z,3.33
2023-09-23T22:27:58.619Z,4.80
2023-09-23T22:30:27.421Z,2.58
2023-09-23T22:32:59.349Z,2.97
2023-09-23T22:35:30.548Z,5.45
2023-09-23T22:38:00.963Z,3.25
2023-09-23T22:40:29.817Z,4.35
2023-09-23T22:42:59.504Z,4.57
2023-09-23T22:45:39.486Z,3.85
2023-09-23T22:48:10.117Z,3.92
2023-09-23T22:50:38.583Z,3.20
2023-09-23T22:53:08.337Z,4.43
2023-09-23T22:55:38.793Z,3.70
2023-09-23T22:58:08.026Z,5.07
2023-09-23T23:00:37.505Z,3.92
2023-09-23T23:03:07.711Z,4.63
2023-09-23T23:05:38.468Z,7.03
2023-09-23T23:08:09.004Z,6.50
2023-09-23T23:10:38.197Z,2.95
2023-09-23T23:13:09.860Z,3.67
2023-09-23T23:15:39.181Z,4.80
2023-09-23T23:18:07.755Z,4.13
2023-09-23T23:20:37.860Z,2.63
2023-09-23T23:23:06.247Z,4.53
2023-09-23T23:25:38.029Z,2.50
2023-09-23T23:28:08.079Z,4.70
2023-09-23T23:30:38.115Z,2.72
2023-09-23T23:33:07.192Z,5.43
2023-09-23T23:35:39.097Z,3.45
2023-09-23T23:38:07.694Z,5.07
2023-09-23T23:40:35.970Z,3.80
2023-09-23T23:43:05.003Z,2.72
2023-09-23T23:45:33.250Z,3.28
2023-09-23T23:48:01.866Z,3.08
2023-09-23T23:50:31.238Z,5.85
2023-09-23T23:53:00.945Z,4.57
2023-09-23T23:55:29.174Z,2.50
2023-09-23T23:57:57.399Z,2.92
